Oswego, Oregon
Current Conditions -  °F | °C
As of 2:53 AM on Thursday 23 Oct 2014 (Local Time) from KUAO Reporting Station
Broken Clouds Broken Clouds  
Wind Chill: 53°   Ceiling: 9500
Heat Index: 53°   Visibility: 10mi
Dew Point: 52°   Wind: 5mph
Humidity: 96%   Direction: 100°E
Pressure: 29.78"   Gusts: NA
Location:  45.4082°N, 122.683°W
Report Text: KUAO 230953Z AUTO 10004KT 10SM FEW080 BKN095 12/11 A2978 RMK AO2 SLP084 T01170111
Loading
Personal Weather Stations






























Interactive Weather Map
Tropical Storm Tracking
New forecast layout! Learn more

10-Day Weather Forecast

Advertisements
Track Severe Weather on mobile